createdAt,value
2018-03-03T00:00:05.093Z,-4.80
2018-03-03T00:01:05.541Z,-4.80
2018-03-03T00:02:05.137Z,-4.80
2018-03-03T00:03:05.461Z,-4.80
2018-03-03T00:04:04.826Z,-4.90
2018-03-03T00:05:05.198Z,-4.90
2018-03-03T00:06:05.492Z,-4.90
2018-03-03T00:07:05.135Z,-4.90
2018-03-03T00:08:05.848Z,-4.90
2018-03-03T00:09:05.523Z,-4.90
2018-03-03T00:10:04.910Z,-4.90
2018-03-03T00:11:05.146Z,-4.90
2018-03-03T00:12:05.588Z,-4.90
2018-03-03T00:13:05.272Z,-4.90
2018-03-03T00:14:05.168Z,-4.90
2018-03-03T00:15:04.834Z,-4.90
2018-03-03T00:16:05.102Z,-4.90
2018-03-03T00:17:04.791Z,-4.90
2018-03-03T00:18:05.483Z,-4.90
2018-03-03T00:19:05.142Z,-4.90
2018-03-03T00:20:05.591Z,-4.90
2018-03-03T00:21:05.882Z,-4.90
2018-03-03T00:22:04.823Z,-5.00
2018-03-03T00:23:04.891Z,-5.00
2018-03-03T00:24:04.743Z,-5.00
2018-03-03T00:25:05.874Z,-5.00
2018-03-03T00:26:05.104Z,-5.00
2018-03-03T00:27:05.229Z,-5.00
2018-03-03T00:28:05.576Z,-5.00
2018-03-03T00:29:05.864Z,-5.00
2018-03-03T00:30:05.125Z,-5.00
2018-03-03T00:31:05.484Z,-5.00
2018-03-03T00:32:05.640Z,-5.00
2018-03-03T00:33:05.607Z,-5.00
2018-03-03T00:34:04.816Z,-5.00
2018-03-03T00:35:05.286Z,-5.00
2018-03-03T00:36:05.484Z,-5.10
2018-03-03T00:37:04.733Z,-5.10
2018-03-03T00:38:07.072Z,-5.10
2018-03-03T00:39:05.548Z,-5.10
2018-03-03T00:40:05.542Z,-5.10
2018-03-03T00:41:05.215Z,-5.10
2018-03-03T00:42:05.882Z,-5.10
2018-03-03T00:43:05.498Z,-5.10
2018-03-03T00:44:05.156Z,-5.10
2018-03-03T00:45:06.314Z,-5.10
2018-03-03T00:46:05.540Z,-5.10
2018-03-03T00:47:05.125Z,-5.10
2018-03-03T00:48:05.610Z,-5.10
2018-03-03T00:49:05.148Z,-5.10
2018-03-03T00:50:04.871Z,-5.10
2018-03-03T00:51:05.329Z,-5.20
2018-03-03T00:52:05.944Z,-5.20
2018-03-03T00:53:05.239Z,-5.20
2018-03-03T00:54:05.126Z,-5.20
2018-03-03T00:55:05.255Z,-5.20
2018-03-03T00:56:05.567Z,-5.20
2018-03-03T00:57:05.582Z,-5.20
2018-03-03T00:58:05.522Z,-5.20
2018-03-03T00:59:05.134Z,-5.30
2018-03-03T01:00:05.168Z,-5.20
2018-03-03T01:01:05.717Z,-5.30
2018-03-03T01:02:05.576Z,-5.30
2018-03-03T01:03:05.576Z,-5.30
2018-03-03T01:04:05.905Z,-5.30
2018-03-03T01:05:04.776Z,-5.30
2018-03-03T01:06:04.822Z,-5.30
2018-03-03T01:07:05.134Z,-5.30
2018-03-03T01:08:05.594Z,-5.30
2018-03-03T01:09:04.951Z,-5.40
2018-03-03T01:10:05.281Z,-5.40
2018-03-03T01:11:05.722Z,-5.30
2018-03-03T01:12:05.585Z,-5.40
2018-03-03T01:13:04.838Z,-5.40
2018-03-03T01:14:05.210Z,-5.40
2018-03-03T01:15:05.599Z,-5.40
2018-03-03T01:16:05.583Z,-5.40
2018-03-03T01:17:05.186Z,-5.40
2018-03-03T01:18:04.835Z,-5.40
2018-03-03T01:19:05.557Z,-5.40
2018-03-03T01:20:04.872Z,-5.40
2018-03-03T01:21:05.164Z,-5.40
2018-03-03T01:22:04.804Z,-5.40
2018-03-03T01:23:05.564Z,-5.40
2018-03-03T01:24:05.348Z,-5.40
2018-03-03T01:25:05.155Z,-5.40
2018-03-03T01:26:05.920Z,-5.40
2018-03-03T01:27:05.610Z,-5.40
2018-03-03T01:28:04.820Z,-5.40
2018-03-03T01:29:05.564Z,-5.40
2018-03-03T01:30:05.583Z,-5.40
2018-03-03T01:31:05.184Z,-5.40
2018-03-03T01:32:06.754Z,-5.40
2018-03-03T01:33:05.175Z,-5.50
2018-03-03T01:34:05.586Z,-5.50
2018-03-03T01:35:05.198Z,-5.40
2018-03-03T01:36:05.640Z,-5.50
2018-03-03T01:37:04.940Z,-5.40
2018-03-03T01:38:04.882Z,-5.50
2018-03-03T01:39:05.583Z,-5.50
2018-03-03T01:40:04.917Z,-5.50
2018-03-03T01:41:05.564Z,-5.50
2018-03-03T01:42:04.938Z,-5.50
2018-03-03T01:43:05.567Z,-5.50
2018-03-03T01:44:04.905Z,-5.50
2018-03-03T01:45:05.203Z,-5.50
2018-03-03T01:46:05.619Z,-5.40
2018-03-03T01:47:04.824Z,-5.50
2018-03-03T01:48:05.042Z,-5.50
2018-03-03T01:49:05.643Z,-5.50
2018-03-03T01:50:05.195Z,-5.50
2018-03-03T01:51:05.661Z,-5.50
2018-03-03T01:52:05.195Z,-5.50
2018-03-03T01:53:04.822Z,-5.50
2018-03-03T01:54:05.212Z,-5.50
2018-03-03T01:55:05.585Z,-5.50
2018-03-03T01:56:05.678Z,-5.50
2018-03-03T01:57:04.940Z,-5.50
2018-03-03T01:58:05.299Z,-5.50
2018-03-03T01:59:05.611Z,-5.50
2018-03-03T02:00:05.601Z,-5.50
2018-03-03T02:01:05.174Z,-5.50
2018-03-03T02:02:05.202Z,-5.50
2018-03-03T02:03:05.603Z,-5.50
2018-03-03T02:04:05.261Z,-5.50
2018-03-03T02:05:05.593Z,-5.50
2018-03-03T02:06:05.186Z,-5.50
2018-03-03T02:07:05.194Z,-5.50
2018-03-03T02:08:05.602Z,-5.50
2018-03-03T02:09:05.202Z,-5.50
2018-03-03T02:10:05.651Z,-5.50
2018-03-03T02:11:04.864Z,-5.50
2018-03-03T02:12:05.253Z,-5.50
2018-03-03T02:13:05.603Z,-5.50
2018-03-03T02:14:05.226Z,-5.50
2018-03-03T02:15:04.862Z,-5.50
2018-03-03T02:16:05.291Z,-5.50
2018-03-03T02:17:05.603Z,-5.50
2018-03-03T02:18:05.244Z,-5.50
2018-03-03T02:19:05.603Z,-5.50
2018-03-03T02:20:04.874Z,-5.50
2018-03-03T02:21:05.234Z,-5.50
2018-03-03T02:22:05.348Z,-5.50
2018-03-03T02:23:05.326Z,-5.50
2018-03-03T02:24:04.825Z,-5.50
2018-03-03T02:25:05.002Z,-5.50
2018-03-03T02:26:06.781Z,-5.50
2018-03-03T02:27:05.244Z,-5.50
2018-03-03T02:28:05.298Z,-5.50
2018-03-03T02:29:05.772Z,-5.50
2018-03-03T02:30:04.926Z,-5.50
2018-03-03T02:31:05.285Z,-5.50
2018-03-03T02:32:05.606Z,-5.50
2018-03-03T02:33:05.659Z,-5.50
2018-03-03T02:34:04.846Z,-5.50
2018-03-03T02:35:05.729Z,-5.50
2018-03-03T02:36:05.665Z,-5.50
2018-03-03T02:37:05.265Z,-5.50
2018-03-03T02:38:05.605Z,-5.50
2018-03-03T02:39:05.032Z,-5.50
2018-03-03T02:40:05.650Z,-5.50
2018-03-03T02:41:04.971Z,-5.50
2018-03-03T02:42:05.265Z,-5.50
2018-03-03T02:43:05.293Z,-5.50
2018-03-03T02:44:05.666Z,-5.40
2018-03-03T02:45:05.275Z,-5.40
2018-03-03T02:46:05.678Z,-5.40
2018-03-03T02:47:04.951Z,-5.50
2018-03-03T02:48:05.628Z,-5.40
2018-03-03T02:49:04.940Z,-5.40
2018-03-03T02:50:05.752Z,-5.50
2018-03-03T02:51:05.689Z,-5.40
2018-03-03T02:52:05.323Z,-5.40
2018-03-03T02:53:05.649Z,-5.50
2018-03-03T02:54:05.667Z,-5.40
2018-03-03T02:55:04.959Z,-5.50
2018-03-03T02:56:04.871Z,-5.40
2018-03-03T02:57:05.238Z,-5.40
2018-03-03T02:58:05.627Z,-5.40
2018-03-03T02:59:04.887Z,-5.40
2018-03-03T03:00:05.382Z,-5.40
2018-03-03T03:01:05.291Z,-5.40
2018-03-03T03:02:04.867Z,-5.40
2018-03-03T03:03:05.007Z,-5.40
2018-03-03T03:04:05.367Z,-5.40
2018-03-03T03:05:06.811Z,-5.40
2018-03-03T03:06:05.351Z,-5.40
2018-03-03T03:07:04.945Z,-5.40
2018-03-03T03:08:05.316Z,-5.40
2018-03-03T03:09:04.903Z,-5.40
2018-03-03T03:10:04.943Z,-5.40
2018-03-03T03:11:04.961Z,-5.40
2018-03-03T03:12:05.723Z,-5.40
2018-03-03T03:13:05.640Z,-5.40
2018-03-03T03:14:05.745Z,-5.40
2018-03-03T03:15:05.267Z,-5.40
2018-03-03T03:16:04.941Z,-5.40
2018-03-03T03:17:05.371Z,-5.40
2018-03-03T03:18:04.887Z,-5.40
2018-03-03T03:19:04.922Z,-5.40
2018-03-03T03:20:05.278Z,-5.40
2018-03-03T03:21:05.659Z,-5.40
2018-03-03T03:22:05.286Z,-5.40
2018-03-03T03:23:06.915Z,-5.40
2018-03-03T03:24:04.895Z,-5.40
2018-03-03T03:25:04.928Z,-5.30
2018-03-03T03:26:05.268Z,-5.30
2018-03-03T03:27:05.648Z,-5.30
2018-03-03T03:28:05.656Z,-5.30
2018-03-03T03:29:04.898Z,-5.30
2018-03-03T03:30:04.954Z,-5.30
2018-03-03T03:31:05.289Z,-5.30
2018-03-03T03:32:05.386Z,-5.30
2018-03-03T03:33:04.632Z,-5.30
2018-03-03T03:34:05.275Z,-5.30
2018-03-03T03:35:05.346Z,-5.30
2018-03-03T03:36:04.976Z,-5.30
2018-03-03T03:37:04.960Z,-5.30
2018-03-03T03:38:05.658Z,-5.30
2018-03-03T03:39:04.963Z,-5.30
2018-03-03T03:40:05.658Z,-5.30
2018-03-03T03:41:05.075Z,-5.30
2018-03-03T03:42:04.954Z,-5.30
2018-03-03T03:43:05.687Z,-5.30
2018-03-03T03:44:05.343Z,-5.30
2018-03-03T03:45:05.700Z,-5.30
2018-03-03T03:46:05.017Z,-5.30
2018-03-03T03:47:05.408Z,-5.30
2018-03-03T03:48:05.680Z,-5.30
2018-03-03T03:49:04.963Z,-5.30
2018-03-03T03:50:05.687Z,-5.40
2018-03-03T03:51:05.113Z,-5.40
2018-03-03T03:52:05.712Z,-5.40
2018-03-03T03:53:05.354Z,-5.40
2018-03-03T03:54:05.318Z,-5.40
2018-03-03T03:55:05.393Z,-5.40
2018-03-03T03:56:05.135Z,-5.40
2018-03-03T03:57:05.443Z,-5.40
2018-03-03T03:58:04.943Z,-5.40
2018-03-03T03:59:04.938Z,-5.40
2018-03-03T04:00:05.708Z,-5.40
2018-03-03T04:01:05.133Z,-5.40
2018-03-03T04:02:05.396Z,-5.50
2018-03-03T04:03:05.717Z,-5.50
2018-03-03T04:04:04.947Z,-5.50
2018-03-03T04:05:05.383Z,-5.50
2018-03-03T04:06:05.752Z,-5.50
2018-03-03T04:07:05.347Z,-5.50
2018-03-03T04:08:05.320Z,-5.50
2018-03-03T04:09:05.338Z,-5.60
2018-03-03T04:10:04.985Z,-5.50
2018-03-03T04:11:06.251Z,-5.50
2018-03-03T04:12:04.764Z,-5.50
2018-03-03T04:13:05.728Z,-5.60
2018-03-03T04:14:04.979Z,-5.50
2018-03-03T04:15:05.051Z,-5.50
2018-03-03T04:16:04.674Z,-5.60
2018-03-03T04:17:05.786Z,-5.60
2018-03-03T04:18:05.123Z,-5.60
2018-03-03T04:19:05.736Z,-5.60
2018-03-03T04:20:05.064Z,-5.60
2018-03-03T04:21:05.338Z,-5.60
2018-03-03T04:22:05.702Z,-5.60
2018-03-03T04:23:05.051Z,-5.60
2018-03-03T04:24:05.423Z,-5.60
2018-03-03T04:25:05.488Z,-5.60
2018-03-03T04:26:04.998Z,-5.60
2018-03-03T04:27:05.347Z,-5.60
2018-03-03T04:28:05.336Z,-5.60
2018-03-03T04:29:04.660Z,-5.70
2018-03-03T04:30:04.958Z,-5.70
2018-03-03T04:31:05.515Z,-5.70
2018-03-03T04:32:05.330Z,-5.70
2018-03-03T04:33:05.433Z,-5.70
2018-03-03T04:34:05.852Z,-5.70
2018-03-03T04:35:05.504Z,-5.70
2018-03-03T04:36:05.421Z,-5.70
2018-03-03T04:37:05.008Z,-5.70
2018-03-03T04:38:05.387Z,-5.70
2018-03-03T04:39:05.732Z,-5.70
2018-03-03T04:40:04.971Z,-5.70
2018-03-03T04:41:05.462Z,-5.70
2018-03-03T04:42:05.738Z,-5.70
2018-03-03T04:43:05.346Z,-5.70
2018-03-03T04:44:05.718Z,-5.70
2018-03-03T04:45:04.959Z,-5.70
2018-03-03T04:46:05.346Z,-5.70
2018-03-03T04:47:04.702Z,-5.70
2018-03-03T04:48:05.065Z,-5.70
2018-03-03T04:49:04.768Z,-5.70
2018-03-03T04:50:05.340Z,-5.70
2018-03-03T04:51:10.271Z,-5.60
2018-03-03T04:52:05.457Z,-5.60
2018-03-03T04:53:05.727Z,-5.70
2018-03-03T04:54:09.858Z,-5.60
2018-03-03T04:55:04.989Z,-5.60
2018-03-03T04:56:05.147Z,-5.60
2018-03-03T04:57:05.063Z,-5.60
2018-03-03T04:58:06.550Z,-5.60
2018-03-03T04:59:05.142Z,-5.60
2018-03-03T05:00:05.351Z,-5.60
2018-03-03T05:01:04.996Z,-5.60
2018-03-03T05:02:05.384Z,-5.60
2018-03-03T05:03:05.421Z,-5.60
2018-03-03T05:04:04.998Z,-5.60
2018-03-03T05:05:05.007Z,-5.60
2018-03-03T05:06:04.814Z,-5.60
2018-03-03T05:07:05.450Z,-5.70
2018-03-03T05:08:04.961Z,-5.60
2018-03-03T05:09:05.080Z,-5.70
2018-03-03T05:10:04.997Z,-5.70
2018-03-03T05:11:05.036Z,-5.70
2018-03-03T05:12:05.795Z,-5.70
2018-03-03T05:13:05.435Z,-5.70
2018-03-03T05:14:05.756Z,-5.70
2018-03-03T05:15:04.986Z,-5.70
2018-03-03T05:16:05.386Z,-5.70
2018-03-03T05:17:04.997Z,-5.70
2018-03-03T05:18:05.397Z,-5.70
2018-03-03T05:19:05.757Z,-5.70
2018-03-03T05:20:05.107Z,-5.70
2018-03-03T05:21:05.770Z,-5.70
2018-03-03T05:22:04.989Z,-5.70
2018-03-03T05:23:06.600Z,-5.70
2018-03-03T05:24:05.409Z,-5.70
2018-03-03T05:25:06.527Z,-5.70
2018-03-03T05:26:05.041Z,-5.70
2018-03-03T05:27:05.771Z,-5.70
2018-03-03T05:28:05.387Z,-5.70
2018-03-03T05:29:05.100Z,-5.80
2018-03-03T05:30:05.453Z,-5.80
2018-03-03T05:31:05.809Z,-5.70
2018-03-03T05:32:05.233Z,-5.70
2018-03-03T05:33:05.828Z,-5.80
2018-03-03T05:34:05.387Z,-5.80
2018-03-03T05:35:05.007Z,-5.80
2018-03-03T05:36:05.447Z,-5.80
2018-03-03T05:37:05.793Z,-5.80
2018-03-03T05:38:05.044Z,-5.80
2018-03-03T05:39:05.861Z,-5.80
2018-03-03T05:40:05.457Z,-5.80
2018-03-03T05:41:05.038Z,-5.80
2018-03-03T05:42:05.439Z,-5.80
2018-03-03T05:43:06.227Z,-5.80
2018-03-03T05:44:05.385Z,-5.90
2018-03-03T05:45:05.787Z,-5.80
2018-03-03T05:46:05.081Z,-5.80
2018-03-03T05:47:05.135Z,-5.80
2018-03-03T05:48:05.851Z,-5.90
2018-03-03T05:49:05.063Z,-5.90
2018-03-03T05:50:04.684Z,-5.90
2018-03-03T05:51:05.380Z,-5.90
2018-03-03T05:52:05.585Z,-5.90
2018-03-03T05:53:05.075Z,-5.90
2018-03-03T05:54:05.052Z,-5.90
2018-03-03T05:55:05.493Z,-5.90
2018-03-03T05:56:05.428Z,-5.90
2018-03-03T05:57:05.498Z,-5.90
2018-03-03T05:58:05.798Z,-5.90
2018-03-03T05:59:05.816Z,-5.90
2018-03-03T06:00:05.442Z,-5.90
2018-03-03T06:01:05.512Z,-5.90
2018-03-03T06:02:05.038Z,-5.90
2018-03-03T06:03:05.425Z,-5.90
2018-03-03T06:04:05.077Z,-5.90
2018-03-03T06:05:05.798Z,-5.90
2018-03-03T06:06:05.057Z,-5.90
2018-03-03T06:07:05.817Z,-5.90
2018-03-03T06:08:05.126Z,-5.90
2018-03-03T06:09:05.485Z,-5.90
2018-03-03T06:10:05.141Z,-5.90
2018-03-03T06:11:05.521Z,-6.00
2018-03-03T06:12:05.068Z,-5.90
2018-03-03T06:13:05.516Z,-6.00
2018-03-03T06:14:04.751Z,-6.00
2018-03-03T06:15:05.507Z,-6.00
2018-03-03T06:16:05.054Z,-6.00
2018-03-03T06:17:05.056Z,-6.00
2018-03-03T06:18:05.427Z,-6.00
2018-03-03T06:19:05.057Z,-6.00
2018-03-03T06:20:05.509Z,-6.00
2018-03-03T06:21:05.096Z,-6.00
2018-03-03T06:22:05.016Z,-6.00
2018-03-03T06:23:05.251Z,-6.00
2018-03-03T06:24:05.401Z,-6.00
2018-03-03T06:25:05.564Z,-6.00
2018-03-03T06:26:05.479Z,-6.00
2018-03-03T06:27:04.845Z,-6.00
2018-03-03T06:28:05.633Z,-6.00
2018-03-03T06:29:05.601Z,-6.00
2018-03-03T06:30:05.077Z,-6.00
2018-03-03T06:31:05.455Z,-6.00
2018-03-03T06:32:04.750Z,-6.00
2018-03-03T06:33:05.046Z,-6.00
2018-03-03T06:34:05.435Z,-6.00
2018-03-03T06:35:05.105Z,-6.00
2018-03-03T06:36:05.549Z,-6.00
2018-03-03T06:37:05.086Z,-6.00
2018-03-03T06:38:05.567Z,-6.00
2018-03-03T06:39:04.769Z,-6.00
2018-03-03T06:40:05.065Z,-6.00
2018-03-03T06:41:05.815Z,-6.00
2018-03-03T06:42:05.055Z,-6.00
2018-03-03T06:43:05.135Z,-6.00
2018-03-03T06:44:05.856Z,-6.00
2018-03-03T06:45:04.884Z,-6.00
2018-03-03T06:46:05.644Z,-6.00
2018-03-03T06:47:05.081Z,-6.00
2018-03-03T06:48:04.736Z,-6.00
2018-03-03T06:49:05.074Z,-6.00
2018-03-03T06:50:05.146Z,-6.00
2018-03-03T06:51:05.508Z,-6.00
2018-03-03T06:52:05.637Z,-6.00
2018-03-03T06:53:05.444Z,-6.00
2018-03-03T06:54:05.845Z,-6.00
2018-03-03T06:55:05.190Z,-6.00
2018-03-03T06:56:04.728Z,-6.00
2018-03-03T06:57:04.806Z,-6.00
2018-03-03T06:58:05.176Z,-6.00
2018-03-03T06:59:04.792Z,-6.00
2018-03-03T07:00:05.466Z,-5.90
2018-03-03T07:01:05.683Z,-5.90
2018-03-03T07:02:05.162Z,-5.90
2018-03-03T07:03:05.184Z,-5.90
2018-03-03T07:04:05.085Z,-5.90
2018-03-03T07:05:05.465Z,-5.90
2018-03-03T07:06:05.646Z,-5.90
2018-03-03T07:07:05.095Z,-5.90
2018-03-03T07:08:05.866Z,-5.90
2018-03-03T07:09:05.074Z,-5.90
2018-03-03T07:10:05.269Z,-5.90
2018-03-03T07:11:04.874Z,-5.90
2018-03-03T07:12:05.468Z,-5.90
2018-03-03T07:13:05.953Z,-5.90
2018-03-03T07:14:05.500Z,-5.90
2018-03-03T07:15:05.262Z,-5.90
2018-03-03T07:16:05.856Z,-5.90
2018-03-03T07:17:05.464Z,-5.90
2018-03-03T07:18:04.724Z,-5.90
2018-03-03T07:19:05.113Z,-5.80
2018-03-03T07:20:05.191Z,-5.90
2018-03-03T07:21:05.462Z,-5.90
2018-03-03T07:22:05.286Z,-5.80
2018-03-03T07:23:05.518Z,-5.80
2018-03-03T07:24:04.822Z,-5.80
2018-03-03T07:25:05.115Z,-5.80
2018-03-03T07:26:04.791Z,-5.80
2018-03-03T07:27:05.101Z,-5.80
2018-03-03T07:28:05.890Z,-5.80
2018-03-03T07:29:05.104Z,-5.80
2018-03-03T07:30:04.897Z,-5.80
2018-03-03T07:31:05.157Z,-5.80
2018-03-03T07:32:05.262Z,-5.80
2018-03-03T07:33:05.105Z,-5.80
2018-03-03T07:34:04.865Z,-5.80
2018-03-03T07:35:05.668Z,-5.80
2018-03-03T07:36:05.540Z,-5.70
2018-03-03T07:37:05.894Z,-5.70
2018-03-03T07:38:05.555Z,-5.70
2018-03-03T07:39:05.581Z,-5.70
2018-03-03T07:40:05.295Z,-5.70
2018-03-03T07:41:05.933Z,-5.70
2018-03-03T07:42:05.197Z,-5.70
2018-03-03T07:43:05.293Z,-5.70
2018-03-03T07:44:05.126Z,-5.70
2018-03-03T07:45:05.503Z,-5.70
2018-03-03T07:46:05.124Z,-5.70
2018-03-03T07:47:05.266Z,-5.60
2018-03-03T07:48:05.598Z,-5.60
2018-03-03T07:49:04.835Z,-5.60
2018-03-03T07:50:04.829Z,-5.60
2018-03-03T07:51:05.123Z,-5.60
2018-03-03T07:52:05.134Z,-5.60
2018-03-03T07:53:05.496Z,-5.60
2018-03-03T07:54:04.844Z,-5.60
2018-03-03T07:55:04.804Z,-5.60
2018-03-03T07:56:05.261Z,-5.60
2018-03-03T07:57:04.913Z,-5.60
2018-03-03T07:58:04.851Z,-5.60
2018-03-03T07:59:04.776Z,-5.60
2018-03-03T08:00:05.238Z,-5.60
2018-03-03T08:01:04.755Z,-5.60
2018-03-03T08:02:05.533Z,-5.60
2018-03-03T08:03:05.162Z,-5.60
2018-03-03T08:04:05.329Z,-5.60
2018-03-03T08:05:05.145Z,-5.60
2018-03-03T08:06:05.308Z,-5.60
2018-03-03T08:07:04.848Z,-5.60
2018-03-03T08:08:05.194Z,-5.60
2018-03-03T08:09:05.210Z,-5.60
2018-03-03T08:10:05.523Z,-5.60
2018-03-03T08:11:04.808Z,-5.60
2018-03-03T08:12:05.136Z,-5.60
2018-03-03T08:13:05.247Z,-5.60
2018-03-03T08:14:05.599Z,-5.60
2018-03-03T08:15:04.834Z,-5.60
2018-03-03T08:16:05.143Z,-5.60
2018-03-03T08:17:05.555Z,-5.60
2018-03-03T08:18:04.863Z,-5.60
2018-03-03T08:19:05.251Z,-5.60
2018-03-03T08:20:05.641Z,-5.60
2018-03-03T08:21:04.916Z,-5.50
2018-03-03T08:22:05.535Z,-5.50
2018-03-03T08:23:05.767Z,-5.50
2018-03-03T08:24:05.220Z,-5.50
2018-03-03T08:25:05.523Z,-5.50
2018-03-03T08:26:04.961Z,-5.50
2018-03-03T08:27:05.208Z,-5.50
2018-03-03T08:28:04.981Z,-5.50
2018-03-03T08:29:05.667Z,-5.50
2018-03-03T08:30:05.533Z,-5.50
2018-03-03T08:31:05.203Z,-5.50
2018-03-03T08:32:04.868Z,-5.50
2018-03-03T08:33:05.563Z,-5.50
2018-03-03T08:34:04.800Z,-5.50
2018-03-03T08:35:05.176Z,-5.50
2018-03-03T08:36:05.280Z,-5.50
2018-03-03T08:37:05.626Z,-5.50
2018-03-03T08:38:04.872Z,-5.50
2018-03-03T08:39:05.554Z,-5.50
2018-03-03T08:40:04.870Z,-5.50
2018-03-03T08:41:04.855Z,-5.40
2018-03-03T08:42:04.822Z,-5.40
2018-03-03T08:43:05.298Z,-5.40
2018-03-03T08:44:05.603Z,-5.40
2018-03-03T08:45:05.165Z,-5.40
2018-03-03T08:46:05.568Z,-5.40
2018-03-03T08:47:05.213Z,-5.40
2018-03-03T08:48:05.680Z,-5.40
2018-03-03T08:49:05.672Z,-5.40
2018-03-03T08:50:05.163Z,-5.40
2018-03-03T08:51:05.285Z,-5.40
2018-03-03T08:52:05.563Z,-5.40
2018-03-03T08:53:04.848Z,-5.30
2018-03-03T08:54:05.203Z,-5.30
2018-03-03T08:55:04.802Z,-5.30
2018-03-03T08:56:04.874Z,-5.30
2018-03-03T08:57:05.381Z,-5.30
2018-03-03T08:58:04.855Z,-5.30
2018-03-03T08:59:05.732Z,-5.30
2018-03-03T09:00:04.803Z,-5.30
2018-03-03T09:01:05.252Z,-5.30
2018-03-03T09:02:05.585Z,-5.30
2018-03-03T09:03:05.552Z,-5.30
2018-03-03T09:04:05.284Z,-5.20
2018-03-03T09:05:04.881Z,-5.20
2018-03-03T09:06:05.576Z,-5.20
2018-03-03T09:07:04.894Z,-5.20
2018-03-03T09:08:04.822Z,-5.20
2018-03-03T09:09:05.680Z,-5.20
2018-03-03T09:10:05.574Z,-5.20
2018-03-03T09:11:05.212Z,-5.20
2018-03-03T09:12:05.622Z,-5.20
2018-03-03T09:13:04.857Z,-5.20
2018-03-03T09:14:05.224Z,-5.20
2018-03-03T09:15:05.784Z,-5.10
2018-03-03T09:16:05.581Z,-5.10
2018-03-03T09:17:05.243Z,-5.10
2018-03-03T09:18:05.644Z,-5.10
2018-03-03T09:19:04.932Z,-5.10
2018-03-03T09:20:05.610Z,-5.10
2018-03-03T09:21:05.401Z,-5.10
2018-03-03T09:22:05.195Z,-5.10
2018-03-03T09:23:04.849Z,-5.10
2018-03-03T09:24:04.907Z,-5.00
2018-03-03T09:25:05.226Z,-5.00
2018-03-03T09:26:05.297Z,-5.00
2018-03-03T09:27:04.864Z,-5.00
2018-03-03T09:28:04.957Z,-5.00
2018-03-03T09:29:05.594Z,-5.00
2018-03-03T09:30:05.008Z,-4.90
2018-03-03T09:31:04.833Z,-4.90
2018-03-03T09:32:05.709Z,-4.90
2018-03-03T09:33:05.204Z,-4.90
2018-03-03T09:34:05.605Z,-4.90
2018-03-03T09:35:05.953Z,-4.90
2018-03-03T09:36:05.643Z,-4.90
2018-03-03T09:37:04.888Z,-4.80
2018-03-03T09:38:05.586Z,-4.80
2018-03-03T09:39:05.377Z,-4.80
2018-03-03T09:40:05.008Z,-4.80
2018-03-03T09:41:05.594Z,-4.80
2018-03-03T09:42:04.850Z,-4.80
2018-03-03T09:43:05.252Z,-4.80
2018-03-03T09:44:05.717Z,-4.80
2018-03-03T09:45:04.862Z,-4.80
2018-03-03T09:46:05.064Z,-4.80
2018-03-03T09:47:04.853Z,-4.80
2018-03-03T09:48:05.258Z,-4.80
2018-03-03T09:49:05.623Z,-4.80
2018-03-03T09:50:05.218Z,-4.80
2018-03-03T09:51:05.655Z,-4.80
2018-03-03T09:52:04.872Z,-4.80
2018-03-03T09:53:05.306Z,-4.80
2018-03-03T09:54:05.606Z,-4.80
2018-03-03T09:55:04.927Z,-4.80
2018-03-03T09:56:05.633Z,-4.80
2018-03-03T09:57:05.224Z,-4.80
2018-03-03T09:58:05.638Z,-4.70
2018-03-03T09:59:05.699Z,-4.70
2018-03-03T10:00:05.625Z,-4.70
2018-03-03T10:01:05.632Z,-4.70
2018-03-03T10:02:06.294Z,-4.70
2018-03-03T10:03:04.934Z,-4.70
2018-03-03T10:04:04.998Z,-4.70
2018-03-03T10:05:04.875Z,-4.70
2018-03-03T10:06:05.254Z,-4.60
2018-03-03T10:07:04.906Z,-4.60
2018-03-03T10:08:05.342Z,-4.60
2018-03-03T10:09:05.384Z,-4.60
2018-03-03T10:10:05.819Z,-4.60
2018-03-03T10:11:05.703Z,-4.60
2018-03-03T10:12:06.004Z,-4.50
2018-03-03T10:13:07.326Z,-4.50
2018-03-03T10:14:06.141Z,-4.50
2018-03-03T10:15:10.277Z,-4.50
2018-03-03T10:16:06.863Z,-4.50
2018-03-03T10:17:07.605Z,-4.40
2018-03-03T10:18:05.341Z,-4.40
2018-03-03T10:19:05.304Z,-4.40
2018-03-03T10:20:05.644Z,-4.40
2018-03-03T10:21:04.894Z,-4.40
2018-03-03T10:22:05.280Z,-4.40
2018-03-03T10:23:05.742Z,-4.40
2018-03-03T10:24:05.626Z,-4.40
2018-03-03T10:25:05.365Z,-4.40
2018-03-03T10:26:04.884Z,-4.40
2018-03-03T10:27:05.302Z,-4.30
2018-03-03T10:28:05.436Z,-4.30
2018-03-03T10:29:04.904Z,-4.30
2018-03-03T10:30:05.358Z,-4.20
2018-03-03T10:31:05.709Z,-4.20
2018-03-03T10:32:05.288Z,-4.20
2018-03-03T10:33:05.402Z,-4.10
2018-03-03T10:34:05.309Z,-4.10
2018-03-03T10:35:05.656Z,-4.10
2018-03-03T10:36:04.948Z,-4.10
2018-03-03T10:37:05.644Z,-4.10
2018-03-03T10:38:05.070Z,-4.00
2018-03-03T10:39:04.889Z,-4.00
2018-03-03T10:40:05.657Z,-4.00
2018-03-03T10:41:04.908Z,-4.00
2018-03-03T10:42:05.380Z,-4.00
2018-03-03T10:43:05.286Z,-3.90
2018-03-03T10:44:05.693Z,-3.90
2018-03-03T10:45:05.663Z,-3.90
2018-03-03T10:46:05.080Z,-3.90
2018-03-03T10:47:05.280Z,-3.90
2018-03-03T10:48:05.703Z,-3.90
2018-03-03T10:49:04.651Z,-3.80
2018-03-03T10:50:05.009Z,-3.80
2018-03-03T10:51:05.673Z,-3.80
2018-03-03T10:52:05.481Z,-3.80
2018-03-03T10:53:05.007Z,-3.80
2018-03-03T10:54:05.666Z,-3.80
2018-03-03T10:55:04.696Z,-3.80
2018-03-03T10:56:05.765Z,-3.80
2018-03-03T10:57:04.894Z,-3.80
2018-03-03T10:58:05.656Z,-3.70
2018-03-03T10:59:04.947Z,-3.70
2018-03-03T11:00:05.742Z,-3.70
2018-03-03T11:01:05.296Z,-3.70
2018-03-03T11:02:05.657Z,-3.60
2018-03-03T11:03:04.620Z,-3.60
2018-03-03T11:04:04.924Z,-3.60
2018-03-03T11:05:05.085Z,-3.60
2018-03-03T11:06:04.980Z,-3.50
2018-03-03T11:07:04.671Z,-3.50
2018-03-03T11:08:05.689Z,-3.50
2018-03-03T11:09:05.675Z,-3.50
2018-03-03T11:10:05.329Z,-3.50
2018-03-03T11:11:05.703Z,-3.50
2018-03-03T11:12:05.012Z,-3.50
2018-03-03T11:13:04.936Z,-3.50
2018-03-03T11:14:05.308Z,-3.40
2018-03-03T11:15:05.695Z,-3.40
2018-03-03T11:16:05.699Z,-3.40
2018-03-03T11:17:05.403Z,-3.30
2018-03-03T11:18:05.525Z,-3.30
2018-03-03T11:19:05.326Z,-3.30
2018-03-03T11:20:05.434Z,-3.30
2018-03-03T11:21:05.365Z,-3.20
2018-03-03T11:22:05.349Z,-3.20
2018-03-03T11:23:04.925Z,-3.20
2018-03-03T11:24:05.699Z,-3.20
2018-03-03T11:25:05.334Z,-3.10
2018-03-03T11:26:04.936Z,-3.10
2018-03-03T11:27:05.374Z,-3.00
2018-03-03T11:28:05.317Z,-3.00
2018-03-03T11:29:04.937Z,-3.00
2018-03-03T11:30:05.325Z,-3.00
2018-03-03T11:31:05.725Z,-3.00
2018-03-03T11:32:05.366Z,-3.00
2018-03-03T11:33:05.306Z,-3.00
2018-03-03T11:34:04.992Z,-3.00
2018-03-03T11:35:05.695Z,-3.00
2018-03-03T11:36:05.152Z,-3.00
2018-03-03T11:37:04.967Z,-3.00
2018-03-03T11:38:05.355Z,-3.00
2018-03-03T11:39:04.944Z,-3.00
2018-03-03T11:40:05.334Z,-3.00
2018-03-03T11:41:04.607Z,-3.00
2018-03-03T11:42:05.417Z,-3.00
2018-03-03T11:43:04.938Z,-3.10
2018-03-03T11:44:05.314Z,-3.10
2018-03-03T11:45:05.695Z,-3.10
2018-03-03T11:46:05.428Z,-3.10
2018-03-03T11:47:04.954Z,-3.10
2018-03-03T11:48:05.420Z,-3.10
2018-03-03T11:49:04.749Z,-3.10
2018-03-03T11:50:05.424Z,-3.10
2018-03-03T11:51:05.058Z,-3.10
2018-03-03T11:52:04.678Z,-3.10
2018-03-03T11:53:05.143Z,-3.10
2018-03-03T11:54:05.357Z,-3.10
2018-03-03T11:55:05.135Z,-3.10
2018-03-03T11:56:05.460Z,-3.10
2018-03-03T11:57:05.335Z,-3.10
2018-03-03T11:58:05.062Z,-3.10
2018-03-03T11:59:05.707Z,-3.10
2018-03-03T12:00:05.398Z,-3.10
2018-03-03T12:01:05.440Z,-3.10
2018-03-03T12:02:05.345Z,-3.10
2018-03-03T12:03:04.657Z,-3.10
2018-03-03T12:04:05.048Z,-3.10
2018-03-03T12:05:04.967Z,-3.10
2018-03-03T12:06:05.006Z,-3.10
2018-03-03T12:07:04.682Z,-3.10
2018-03-03T12:08:05.032Z,-3.10
2018-03-03T12:09:04.978Z,-3.10
2018-03-03T12:10:04.986Z,-3.10
2018-03-03T12:11:05.359Z,-3.10
2018-03-03T12:12:04.977Z,-3.10
2018-03-03T12:13:05.737Z,-3.10
2018-03-03T12:14:05.060Z,-3.10
2018-03-03T12:15:05.348Z,-3.00
2018-03-03T12:16:04.680Z,-3.00
2018-03-03T12:17:05.748Z,-3.00
2018-03-03T12:18:05.417Z,-3.00
2018-03-03T12:19:05.155Z,-3.00
2018-03-03T12:20:05.030Z,-3.00
2018-03-03T12:21:05.449Z,-3.00
2018-03-03T12:22:05.098Z,-3.00
2018-03-03T12:23:05.394Z,-3.10
2018-03-03T12:24:04.980Z,-3.00
2018-03-03T12:25:05.463Z,-3.00
2018-03-03T12:26:05.171Z,-3.00
2018-03-03T12:27:04.997Z,-3.00
2018-03-03T12:28:04.662Z,-3.00
2018-03-03T12:29:05.162Z,-3.00
2018-03-03T12:30:05.025Z,-3.00
2018-03-03T12:31:05.365Z,-3.00
2018-03-03T12:32:04.701Z,-3.00
2018-03-03T12:33:05.397Z,-3.00
2018-03-03T12:34:05.834Z,-3.00
2018-03-03T12:35:04.713Z,-3.00
2018-03-03T12:36:05.777Z,-3.00
2018-03-03T12:37:05.387Z,-3.00
2018-03-03T12:38:04.718Z,-3.00
2018-03-03T12:39:05.563Z,-3.00
2018-03-03T12:40:05.142Z,-3.00
2018-03-03T12:41:05.016Z,-3.00
2018-03-03T12:42:04.656Z,-3.10
2018-03-03T12:43:05.606Z,-3.00
2018-03-03T12:44:05.174Z,-3.00
2018-03-03T12:45:04.724Z,-3.00
2018-03-03T12:46:05.016Z,-3.10
2018-03-03T12:47:04.708Z,-3.10
2018-03-03T12:48:04.711Z,-3.00
2018-03-03T12:49:04.728Z,-3.10
2018-03-03T12:50:05.617Z,-3.00
2018-03-03T12:51:05.769Z,-3.10
2018-03-03T12:52:04.731Z,-3.10